sensor_id;sensor_type;location;lat;lon;timestamp;temperature;humidity
6210;DHT22;3138;52.550;13.148;2023-03-31T00:02:21;9.70;1.00
6210;DHT22;3138;52.550;13.148;2023-03-31T00:04:48;9.70;1.00
6210;DHT22;3138;52.550;13.148;2023-03-31T00:07:18;9.80;99.90
6210;DHT22;3138;52.550;13.148;2023-03-31T00:09:48;9.70;99.90
6210;DHT22;3138;52.550;13.148;2023-03-31T00:12:19;9.70;99.90
6210;DHT22;3138;52.550;13.148;2023-03-31T00:14:46;9.70;99.90
6210;DHT22;3138;52.550;13.148;2023-03-31T00:17:13;9.70;99.90
6210;DHT22;3138;52.550;13.148;2023-03-31T00:19:40;9.70;99.90
6210;DHT22;3138;52.550;13.148;2023-03-31T00:22:07;9.80;99.90
6210;DHT22;3138;52.550;13.148;2023-03-31T00:24:37;9.80;99.90
6210;DHT22;3138;52.550;13.148;2023-03-31T00:27:05;9.80;99.90
6210;DHT22;3138;52.550;13.148;2023-03-31T00:29:32;9.90;1.00
6210;DHT22;3138;52.550;13.148;2023-03-31T00:32:00;9.80;1.00
6210;DHT22;3138;52.550;13.148;2023-03-31T00:34:27;9.80;1.00
6210;DHT22;3138;52.550;13.148;2023-03-31T00:36:54;9.80;1.00
6210;DHT22;3138;52.550;13.148;2023-03-31T00:39:27;9.70;1.00
6210;DHT22;3138;52.550;13.148;2023-03-31T00:41:57;9.70;1.00
6210;DHT22;3138;52.550;13.148;2023-03-31T00:44:28;9.80;1.00
6210;DHT22;3138;52.550;13.148;2023-03-31T00:47:00;9.80;1.00
6210;DHT22;3138;52.550;13.148;2023-03-31T00:49:31;9.80;1.00
6210;DHT22;3138;52.550;13.148;2023-03-31T00:52:02;9.60;1.00
6210;DHT22;3138;52.550;13.148;2023-03-31T00:54:31;9.60;1.00
6210;DHT22;3138;52.550;13.148;2023-03-31T00:56:59;9.50;1.00
6210;DHT22;3138;52.550;13.148;2023-03-31T00:59:36;9.40;1.00
6210;DHT22;3138;52.550;13.148;2023-03-31T01:02:03;9.40;1.00
6210;DHT22;3138;52.550;13.148;2023-03-31T01:04:34;9.30;1.00
6210;DHT22;3138;52.550;13.148;2023-03-31T01:07:07;9.20;1.00
6210;DHT22;3138;52.550;13.148;2023-03-31T01:09:37;9.10;1.00
6210;DHT22;3138;52.550;13.148;2023-03-31T01:12:07;9.00;1.00
6210;DHT22;3138;52.550;13.148;2023-03-31T01:14:37;9.00;41.30
6210;DHT22;3138;52.550;13.148;2023-03-31T01:17:04;9.00;40.60
6210;DHT22;3138;52.550;13.148;2023-03-31T01:19:43;8.90;91.00
6210;DHT22;3138;52.550;13.148;2023-03-31T01:28:46;8.90;99.90
6210;DHT22;3138;52.550;13.148;2023-03-31T01:40:49;9.00;1.00
6210;DHT22;3138;52.550;13.148;2023-03-31T01:43:22;8.90;1.00
6210;DHT22;3138;52.550;13.148;2023-03-31T01:45:56;8.90;30.30
6210;DHT22;3138;52.550;13.148;2023-03-31T01:48:34;8.90;48.90
6210;DHT22;3138;52.550;13.148;2023-03-31T01:51:08;8.80;51.30
6210;DHT22;3138;52.550;13.148;2023-03-31T01:53:43;8.70;99.90
6210;DHT22;3138;52.550;13.148;2023-03-31T01:56:17;8.60;99.90
6210;DHT22;3138;52.550;13.148;2023-03-31T01:58:49;8.60;99.90
6210;DHT22;3138;52.550;13.148;2023-03-31T02:01:22;8.60;99.90
6210;DHT22;3138;52.550;13.148;2023-03-31T02:03:54;8.60;99.90
6210;DHT22;3138;52.550;13.148;2023-03-31T02:06:25;8.60;99.90
6210;DHT22;3138;52.550;13.148;2023-03-31T02:08:56;8.50;99.90
6210;DHT22;3138;52.550;13.148;2023-03-31T02:11:25;8.50;99.90
6210;DHT22;3138;52.550;13.148;2023-03-31T02:13:54;8.60;99.90
6210;DHT22;3138;52.550;13.148;2023-03-31T02:16:23;8.60;1.00
6210;DHT22;3138;52.550;13.148;2023-03-31T02:18:53;8.60;1.00
6210;DHT22;3138;52.550;13.148;2023-03-31T02:21:27;8.60;1.00
6210;DHT22;3138;52.550;13.148;2023-03-31T02:23:56;8.60;1.00
6210;DHT22;3138;52.550;13.148;2023-03-31T02:26:28;8.70;1.00
6210;DHT22;3138;52.550;13.148;2023-03-31T02:28:56;8.70;1.00
6210;DHT22;3138;52.550;13.148;2023-03-31T02:31:27;8.80;1.00
6210;DHT22;3138;52.550;13.148;2023-03-31T02:33:55;8.80;1.00
6210;DHT22;3138;52.550;13.148;2023-03-31T02:36:23;8.90;1.00
6210;DHT22;3138;52.550;13.148;2023-03-31T02:38:53;9.00;1.00
6210;DHT22;3138;52.550;13.148;2023-03-31T02:41:21;9.00;99.90
6210;DHT22;3138;52.550;13.148;2023-03-31T02:43:50;9.00;99.90
6210;DHT22;3138;52.550;13.148;2023-03-31T02:46:17;9.00;99.90
6210;DHT22;3138;52.550;13.148;2023-03-31T02:48:46;9.00;99.90
6210;DHT22;3138;52.550;13.148;2023-03-31T02:54:22;9.10;99.90
6210;DHT22;3138;52.550;13.148;2023-03-31T02:57:17;9.10;99.90
6210;DHT22;3138;52.550;13.148;2023-03-31T02:59:57;9.00;99.90
6210;DHT22;3138;52.550;13.148;2023-03-31T03:02:36;9.10;99.90
6210;DHT22;3138;52.550;13.148;2023-03-31T03:05:15;9.20;99.90
6210;DHT22;3138;52.550;13.148;2023-03-31T03:07:47;9.20;99.90
6210;DHT22;3138;52.550;13.148;2023-03-31T03:10:25;9.20;99.90
6210;DHT22;3138;52.550;13.148;2023-03-31T03:12:56;9.30;99.90
6210;DHT22;3138;52.550;13.148;2023-03-31T03:15:30;9.30;93.50
6210;DHT22;3138;52.550;13.148;2023-03-31T03:17:58;9.30;99.90
6210;DHT22;3138;52.550;13.148;2023-03-31T03:20:25;9.30;81.80
6210;DHT22;3138;52.550;13.148;2023-03-31T03:22:52;9.30;99.90
6210;DHT22;3138;52.550;13.148;2023-03-31T03:25:19;9.40;90.40
6210;DHT22;3138;52.550;13.148;2023-03-31T03:27:46;9.40;45.00
6210;DHT22;3138;52.550;13.148;2023-03-31T03:30:13;9.40;37.10
6210;DHT22;3138;52.550;13.148;2023-03-31T03:32:42;9.40;17.60
6210;DHT22;3138;52.550;13.148;2023-03-31T03:35:09;9.40;16.40
6210;DHT22;3138;52.550;13.148;2023-03-31T03:37:36;9.50;1.00
6210;DHT22;3138;52.550;13.148;2023-03-31T03:40:03;9.50;1.00
6210;DHT22;3138;52.550;13.148;2023-03-31T03:42:31;9.40;1.00
6210;DHT22;3138;52.550;13.148;2023-03-31T03:44:58;9.50;1.00
6210;DHT22;3138;52.550;13.148;2023-03-31T03:47:26;9.50;1.00
6210;DHT22;3138;52.550;13.148;2023-03-31T03:49:54;9.40;1.00
6210;DHT22;3138;52.550;13.148;2023-03-31T03:52:21;9.40;1.00
6210;DHT22;3138;52.550;13.148;2023-03-31T03:54:48;9.30;1.00
6210;DHT22;3138;52.550;13.148;2023-03-31T03:57:15;9.30;1.00
6210;DHT22;3138;52.550;13.148;2023-03-31T03:59:42;9.20;20.30
6210;DHT22;3138;52.550;13.148;2023-03-31T04:02:08;9.30;68.60
6210;DHT22;3138;52.550;13.148;2023-03-31T04:04:35;9.40;38.30
6210;DHT22;3138;52.550;13.148;2023-03-31T04:07:04;9.30;1.00
6210;DHT22;3138;52.550;13.148;2023-03-31T04:09:31;9.20;13.10
6210;DHT22;3138;52.550;13.148;2023-03-31T04:11:57;9.10;60.30
6210;DHT22;3138;52.550;13.148;2023-03-31T04:14:24;9.10;99.90
6210;DHT22;3138;52.550;13.148;2023-03-31T04:16:51;9.10;99.90
6210;DHT22;3138;52.550;13.148;2023-03-31T04:19:20;9.10;99.90
6210;DHT22;3138;52.550;13.148;2023-03-31T04:21:50;9.20;99.90
6210;DHT22;3138;52.550;13.148;2023-03-31T04:24:28;9.30;99.90
6210;DHT22;3138;52.550;13.148;2023-03-31T04:26:58;9.30;99.90
6210;DHT22;3138;52.550;13.148;2023-03-31T04:29:25;9.40;99.90
6210;DHT22;3138;52.550;13.148;2023-03-31T04:31:53;9.40;99.90
6210;DHT22;3138;52.550;13.148;2023-03-31T04:34:23;9.40;99.90
6210;DHT22;3138;52.550;13.148;2023-03-31T04:36:59;9.40;99.90
6210;DHT22;3138;52.550;13.148;2023-03-31T04:39:29;9.40;99.90
6210;DHT22;3138;52.550;13.148;2023-03-31T04:41:56;9.40;99.90
6210;DHT22;3138;52.550;13.148;2023-03-31T04:44:26;9.40;99.90
6210;DHT22;3138;52.550;13.148;2023-03-31T04:46:54;9.40;99.90
6210;DHT22;3138;52.550;13.148;2023-03-31T04:49:21;9.50;99.90
6210;DHT22;3138;52.550;13.148;2023-03-31T04:51:48;9.50;99.90
6210;DHT22;3138;52.550;13.148;2023-03-31T04:54:15;9.50;99.90
6210;DHT22;3138;52.550;13.148;2023-03-31T04:56:43;9.50;99.90
6210;DHT22;3138;52.550;13.148;2023-03-31T04:59:10;9.40;99.90
6210;DHT22;3138;52.550;13.148;2023-03-31T05:01:37;9.40;99.90
6210;DHT22;3138;52.550;13.148;2023-03-31T05:04:10;9.30;99.90
6210;DHT22;3138;52.550;13.148;2023-03-31T05:06:36;9.20;99.90
6210;DHT22;3138;52.550;13.148;2023-03-31T05:09:03;9.20;99.90
6210;DHT22;3138;52.550;13.148;2023-03-31T05:11:31;9.10;99.90
6210;DHT22;3138;52.550;13.148;2023-03-31T05:13:59;9.00;99.90
6210;DHT22;3138;52.550;13.148;2023-03-31T05:16:26;8.90;99.90
6210;DHT22;3138;52.550;13.148;2023-03-31T05:18:53;8.90;99.90
6210;DHT22;3138;52.550;13.148;2023-03-31T05:21:20;8.90;99.90
6210;DHT22;3138;52.550;13.148;2023-03-31T05:23:47;8.80;99.90
6210;DHT22;3138;52.550;13.148;2023-03-31T05:26:14;8.80;99.90
6210;DHT22;3138;52.550;13.148;2023-03-31T05:28:41;8.90;1.00
6210;DHT22;3138;52.550;13.148;2023-03-31T05:31:10;9.00;1.00
6210;DHT22;3138;52.550;13.148;2023-03-31T05:33:37;9.10;1.00
6210;DHT22;3138;52.550;13.148;2023-03-31T05:36:07;9.20;99.90
6210;DHT22;3138;52.550;13.148;2023-03-31T05:38:34;9.40;99.90
6210;DHT22;3138;52.550;13.148;2023-03-31T05:41:01;9.50;99.90
6210;DHT22;3138;52.550;13.148;2023-03-31T05:43:28;9.70;99.90
6210;DHT22;3138;52.550;13.148;2023-03-31T05:45:55;9.80;18.20
6210;DHT22;3138;52.550;13.148;2023-03-31T05:48:23;9.90;1.00
6210;DHT22;3138;52.550;13.148;2023-03-31T05:50:50;10.10;1.00
6210;DHT22;3138;52.550;13.148;2023-03-31T05:53:17;10.10;99.90
6210;DHT22;3138;52.550;13.148;2023-03-31T05:55:44;10.20;1.20
6210;DHT22;3138;52.550;13.148;2023-03-31T05:58:11;10.30;1.00
6210;DHT22;3138;52.550;13.148;2023-03-31T06:00:38;10.50;1.00
6210;DHT22;3138;52.550;13.148;2023-03-31T06:03:05;10.50;60.10
6210;DHT22;3138;52.550;13.148;2023-03-31T06:05:33;10.40;1.00
6210;DHT22;3138;52.550;13.148;2023-03-31T06:08:01;10.30;1.00
6210;DHT22;3138;52.550;13.148;2023-03-31T06:10:28;10.30;1.00
6210;DHT22;3138;52.550;13.148;2023-03-31T06:12:55;10.20;1.00
6210;DHT22;3138;52.550;13.148;2023-03-31T06:15:22;10.30;12.10
6210;DHT22;3138;52.550;13.148;2023-03-31T06:17:48;10.60;99.90
6210;DHT22;3138;52.550;13.148;2023-03-31T06:20:15;10.80;1.00
6210;DHT22;3138;52.550;13.148;2023-03-31T06:22:44;10.80;99.90
6210;DHT22;3138;52.550;13.148;2023-03-31T06:25:11;10.90;62.10
6210;DHT22;3138;52.550;13.148;2023-03-31T06:27:37;10.90;1.00
6210;DHT22;3138;52.550;13.148;2023-03-31T06:30:06;10.90;1.00
6210;DHT22;3138;52.550;13.148;2023-03-31T06:32:33;10.90;1.00
6210;DHT22;3138;52.550;13.148;2023-03-31T06:35:00;11.10;1.00
6210;DHT22;3138;52.550;13.148;2023-03-31T06:37:27;11.30;1.00
6210;DHT22;3138;52.550;13.148;2023-03-31T06:39:55;11.50;99.90
6210;DHT22;3138;52.550;13.148;2023-03-31T06:42:22;11.80;1.00
6210;DHT22;3138;52.550;13.148;2023-03-31T06:44:49;12.00;1.00
6210;DHT22;3138;52.550;13.148;2023-03-31T06:47:15;12.10;99.90
6210;DHT22;3138;52.550;13.148;2023-03-31T06:49:42;12.10;1.00
6210;DHT22;3138;52.550;13.148;2023-03-31T06:52:09;12.10;1.00
6210;DHT22;3138;52.550;13.148;2023-03-31T06:54:36;12.30;1.00
6210;DHT22;3138;52.550;13.148;2023-03-31T06:57:04;12.50;1.00
6210;DHT22;3138;52.550;13.148;2023-03-31T06:59:31;12.80;1.00
6210;DHT22;3138;52.550;13.148;2023-03-31T07:01:58;13.20;99.90
6210;DHT22;3138;52.550;13.148;2023-03-31T07:04:25;13.30;99.90
6210;DHT22;3138;52.550;13.148;2023-03-31T07:06:53;13.20;99.90
6210;DHT22;3138;52.550;13.148;2023-03-31T07:09:20;13.10;99.80
6210;DHT22;3138;52.550;13.148;2023-03-31T07:11:49;13.10;35.50
6210;DHT22;3138;52.550;13.148;2023-03-31T07:14:17;13.10;1.00
6210;DHT22;3138;52.550;13.148;2023-03-31T07:16:44;13.00;1.00
6210;DHT22;3138;52.550;13.148;2023-03-31T07:19:11;13.10;1.00
6210;DHT22;3138;52.550;13.148;2023-03-31T07:21:39;13.30;1.00
6210;DHT22;3138;52.550;13.148;2023-03-31T07:24:06;13.20;1.00
6210;DHT22;3138;52.550;13.148;2023-03-31T07:26:33;13.10;1.00
6210;DHT22;3138;52.550;13.148;2023-03-31T07:29:00;13.30;1.00
6210;DHT22;3138;52.550;13.148;2023-03-31T07:31:29;13.20;1.00
6210;DHT22;3138;52.550;13.148;2023-03-31T07:33:56;13.20;1.00
6210;DHT22;3138;52.550;13.148;2023-03-31T07:36:22;13.30;1.00
6210;DHT22;3138;52.550;13.148;2023-03-31T07:38:49;13.40;1.00
6210;DHT22;3138;52.550;13.148;2023-03-31T07:41:18;13.30;1.00
6210;DHT22;3138;52.550;13.148;2023-03-31T07:43:46;13.60;1.00
6210;DHT22;3138;52.550;13.148;2023-03-31T07:46:15;13.90;1.00
6210;DHT22;3138;52.550;13.148;2023-03-31T07:48:44;14.30;1.00
6210;DHT22;3138;52.550;13.148;2023-03-31T07:51:12;14.20;99.90
6210;DHT22;3138;52.550;13.148;2023-03-31T07:53:39;14.00;99.90
6210;DHT22;3138;52.550;13.148;2023-03-31T07:56:06;14.10;99.90
6210;DHT22;3138;52.550;13.148;2023-03-31T07:58:33;14.00;99.90
6210;DHT22;3138;52.550;13.148;2023-03-31T08:01:00;14.00;99.90
6210;DHT22;3138;52.550;13.148;2023-03-31T08:03:28;14.20;99.90
6210;DHT22;3138;52.550;13.148;2023-03-31T08:05:57;14.00;99.90
6210;DHT22;3138;52.550;13.148;2023-03-31T08:08:25;13.90;99.90
6210;DHT22;3138;52.550;13.148;2023-03-31T08:10:52;13.80;99.90
6210;DHT22;3138;52.550;13.148;2023-03-31T08:13:19;13.80;99.90
6210;DHT22;3138;52.550;13.148;2023-03-31T08:15:46;14.00;99.90
6210;DHT22;3138;52.550;13.148;2023-03-31T08:18:13;13.90;99.90
6210;DHT22;3138;52.550;13.148;2023-03-31T08:20:40;14.10;99.90
6210;DHT22;3138;52.550;13.148;2023-03-31T08:23:08;14.30;99.90
6210;DHT22;3138;52.550;13.148;2023-03-31T08:25:36;14.30;99.90
6210;DHT22;3138;52.550;13.148;2023-03-31T08:28:03;14.20;99.90
6210;DHT22;3138;52.550;13.148;2023-03-31T08:30:31;14.30;99.90
6210;DHT22;3138;52.550;13.148;2023-03-31T08:32:59;14.40;99.90
6210;DHT22;3138;52.550;13.148;2023-03-31T08:35:26;14.60;99.90
6210;DHT22;3138;52.550;13.148;2023-03-31T08:37:53;14.70;99.90
6210;DHT22;3138;52.550;13.148;2023-03-31T08:40:24;14.70;91.00
6210;DHT22;3138;52.550;13.148;2023-03-31T08:42:53;14.60;57.60
6210;DHT22;3138;52.550;13.148;2023-03-31T08:45:24;14.80;99.90
6210;DHT22;3138;52.550;13.148;2023-03-31T08:47:54;14.80;24.30
6210;DHT22;3138;52.550;13.148;2023-03-31T08:50:26;14.80;29.80
6210;DHT22;3138;52.550;13.148;2023-03-31T08:52:58;14.90;20.50
6210;DHT22;3138;52.550;13.148;2023-03-31T08:55:33;14.90;1.00
6210;DHT22;3138;52.550;13.148;2023-03-31T08:58:06;14.90;1.00
6210;DHT22;3138;52.550;13.148;2023-03-31T09:00:42;15.00;1.00
6210;DHT22;3138;52.550;13.148;2023-03-31T09:03:17;15.10;1.00
6210;DHT22;3138;52.550;13.148;2023-03-31T09:05:52;15.10;1.00
6210;DHT22;3138;52.550;13.148;2023-03-31T09:08:32;15.10;1.00
6210;DHT22;3138;52.550;13.148;2023-03-31T09:11:09;15.20;1.00
6210;DHT22;3138;52.550;13.148;2023-03-31T09:14:11;15.10;1.00
6210;DHT22;3138;52.550;13.148;2023-03-31T09:16:43;15.00;1.00
6210;DHT22;3138;52.550;13.148;2023-03-31T09:19:17;15.00;1.00
6210;DHT22;3138;52.550;13.148;2023-03-31T09:21:48;15.10;1.00
6210;DHT22;3138;52.550;13.148;2023-03-31T09:24:19;15.30;1.00
6210;DHT22;3138;52.550;13.148;2023-03-31T09:26:52;15.40;1.00
6210;DHT22;3138;52.550;13.148;2023-03-31T09:29:22;15.40;1.00
6210;DHT22;3138;52.550;13.148;2023-03-31T09:31:51;15.60;1.00
6210;DHT22;3138;52.550;13.148;2023-03-31T09:34:26;15.70;1.00
6210;DHT22;3138;52.550;13.148;2023-03-31T09:36:54;15.80;1.00
6210;DHT22;3138;52.550;13.148;2023-03-31T09:39:24;15.90;1.00
6210;DHT22;3138;52.550;13.148;2023-03-31T09:41:53;15.90;1.00
6210;DHT22;3138;52.550;13.148;2023-03-31T09:44:24;15.80;1.00
6210;DHT22;3138;52.550;13.148;2023-03-31T09:46:54;15.50;1.00
6210;DHT22;3138;52.550;13.148;2023-03-31T09:49:22;15.50;1.00
6210;DHT22;3138;52.550;13.148;2023-03-31T09:51:59;15.30;1.00
6210;DHT22;3138;52.550;13.148;2023-03-31T09:54:30;15.10;1.00
6210;DHT22;3138;52.550;13.148;2023-03-31T09:57:02;15.10;1.00
6210;DHT22;3138;52.550;13.148;2023-03-31T09:59:31;15.10;1.00
6210;DHT22;3138;52.550;13.148;2023-03-31T10:02:00;15.20;1.00
6210;DHT22;3138;52.550;13.148;2023-03-31T10:04:29;15.00;1.00
6210;DHT22;3138;52.550;13.148;2023-03-31T10:07:00;15.20;1.00
6210;DHT22;3138;52.550;13.148;2023-03-31T10:09:31;15.00;1.00
6210;DHT22;3138;52.550;13.148;2023-03-31T10:12:03;15.00;1.00
6210;DHT22;3138;52.550;13.148;2023-03-31T10:14:37;15.00;1.00
6210;DHT22;3138;52.550;13.148;2023-03-31T10:17:05;14.70;1.00
6210;DHT22;3138;52.550;13.148;2023-03-31T10:19:34;14.70;1.00
6210;DHT22;3138;52.550;13.148;2023-03-31T10:22:03;14.40;1.00
6210;DHT22;3138;52.550;13.148;2023-03-31T10:24:38;14.20;1.00
6210;DHT22;3138;52.550;13.148;2023-03-31T10:27:16;14.40;48.00
6210;DHT22;3138;52.550;13.148;2023-03-31T10:29:43;14.30;75.60
6210;DHT22;3138;52.550;13.148;2023-03-31T10:32:16;14.60;99.90
6210;DHT22;3138;52.550;13.148;2023-03-31T10:34:43;14.60;1.00
6210;DHT22;3138;52.550;13.148;2023-03-31T10:37:14;14.50;1.00
6210;DHT22;3138;52.550;13.148;2023-03-31T10:39:43;14.60;41.00
6210;DHT22;3138;52.550;13.148;2023-03-31T10:42:19;14.40;12.90
6210;DHT22;3138;52.550;13.148;2023-03-31T10:44:47;14.50;35.90
6210;DHT22;3138;52.550;13.148;2023-03-31T10:47:18;14.60;43.80
6210;DHT22;3138;52.550;13.148;2023-03-31T10:49:49;14.80;48.90
6210;DHT22;3138;52.550;13.148;2023-03-31T10:52:19;14.80;1.00
6210;DHT22;3138;52.550;13.148;2023-03-31T10:54:53;14.90;26.20
6210;DHT22;3138;52.550;13.148;2023-03-31T10:57:28;14.80;1.00
6210;DHT22;3138;52.550;13.148;2023-03-31T11:00:10;14.90;1.00
6210;DHT22;3138;52.550;13.148;2023-03-31T11:02:52;14.90;15.70
6210;DHT22;3138;52.550;13.148;2023-03-31T11:05:33;15.30;54.90
6210;DHT22;3138;52.550;13.148;2023-03-31T11:08:14;15.60;27.20
6210;DHT22;3138;52.550;13.148;2023-03-31T11:11:00;15.80;25.20
6210;DHT22;3138;52.550;13.148;2023-03-31T11:13:37;16.00;1.00
6210;DHT22;3138;52.550;13.148;2023-03-31T11:16:15;16.00;1.00
6210;DHT22;3138;52.550;13.148;2023-03-31T11:18:51;16.00;1.00
6210;DHT22;3138;52.550;13.148;2023-03-31T11:21:26;16.00;1.00
6210;DHT22;3138;52.550;13.148;2023-03-31T11:24:00;16.10;1.00
6210;DHT22;3138;52.550;13.148;2023-03-31T11:26:39;15.90;1.00
6210;DHT22;3138;52.550;13.148;2023-03-31T11:29:21;16.10;1.00
6210;DHT22;3138;52.550;13.148;2023-03-31T11:31:57;16.30;1.00
6210;DHT22;3138;52.550;13.148;2023-03-31T11:34:41;16.20;1.00
6210;DHT22;3138;52.550;13.148;2023-03-31T11:37:24;16.20;1.00
6210;DHT22;3138;52.550;13.148;2023-03-31T11:40:08;16.10;1.00
6210;DHT22;3138;52.550;13.148;2023-03-31T11:42:47;16.00;1.00
6210;DHT22;3138;52.550;13.148;2023-03-31T11:45:18;16.00;1.00
6210;DHT22;3138;52.550;13.148;2023-03-31T11:47:49;15.90;1.00
6210;DHT22;3138;52.550;13.148;2023-03-31T11:50:20;15.90;1.00
6210;DHT22;3138;52.550;13.148;2023-03-31T11:52:55;15.50;1.00
6210;DHT22;3138;52.550;13.148;2023-03-31T11:55:25;15.30;1.00
6210;DHT22;3138;52.550;13.148;2023-03-31T11:57:58;15.00;1.00
6210;DHT22;3138;52.550;13.148;2023-03-31T12:00:31;14.50;1.90
6210;DHT22;3138;52.550;13.148;2023-03-31T12:03:03;14.20;1.00
6210;DHT22;3138;52.550;13.148;2023-03-31T12:05:36;13.90;99.90
6210;DHT22;3138;52.550;13.148;2023-03-31T12:08:07;13.60;1.00
6210;DHT22;3138;52.550;13.148;2023-03-31T12:10:40;13.60;1.00
6210;DHT22;3138;52.550;13.148;2023-03-31T12:13:32;13.60;99.90
6210;DHT22;3138;52.550;13.148;2023-03-31T12:16:05;13.50;1.00
6210;DHT22;3138;52.550;13.148;2023-03-31T12:18:36;13.50;99.90
6210;DHT22;3138;52.550;13.148;2023-03-31T12:21:06;13.70;1.00
6210;DHT22;3138;52.550;13.148;2023-03-31T12:23:38;13.90;2.00
6210;DHT22;3138;52.550;13.148;2023-03-31T12:26:14;14.00;99.90
6210;DHT22;3138;52.550;13.148;2023-03-31T12:28:44;14.20;99.90
6210;DHT22;3138;52.550;13.148;2023-03-31T12:31:19;14.40;66.20
6210;DHT22;3138;52.550;13.148;2023-03-31T12:33:50;14.50;1.00
6210;DHT22;3138;52.550;13.148;2023-03-31T12:36:29;14.70;1.00
6210;DHT22;3138;52.550;13.148;2023-03-31T12:39:12;14.80;99.90
6210;DHT22;3138;52.550;13.148;2023-03-31T12:41:46;14.50;1.00
6210;DHT22;3138;52.550;13.148;2023-03-31T12:44:30;14.30;1.00
6210;DHT22;3138;52.550;13.148;2023-03-31T12:47:25;14.10;99.90
6210;DHT22;3138;52.550;13.148;2023-03-31T12:50:13;13.90;1.00
6210;DHT22;3138;52.550;13.148;2023-03-31T12:52:48;13.70;1.00
6210;DHT22;3138;52.550;13.148;2023-03-31T12:55:26;13.60;1.00
6210;DHT22;3138;52.550;13.148;2023-03-31T13:01:07;13.40;13.60
6210;DHT22;3138;52.550;13.148;2023-03-31T13:03:57;13.20;99.90
6210;DHT22;3138;52.550;13.148;2023-03-31T13:06:54;12.80;1.00
6210;DHT22;3138;52.550;13.148;2023-03-31T13:09:41;12.60;97.10
6210;DHT22;3138;52.550;13.148;2023-03-31T13:12:13;12.60;61.60
6210;DHT22;3138;52.550;13.148;2023-03-31T13:14:43;12.50;1.00
6210;DHT22;3138;52.550;13.148;2023-03-31T13:20:34;12.10;1.00
6210;DHT22;3138;52.550;13.148;2023-03-31T13:23:04;12.20;1.00
6210;DHT22;3138;52.550;13.148;2023-03-31T13:25:48;12.20;99.40
6210;DHT22;3138;52.550;13.148;2023-03-31T13:28:31;11.90;93.60
6210;DHT22;3138;52.550;13.148;2023-03-31T13:31:00;11.90;99.90
6210;DHT22;3138;52.550;13.148;2023-03-31T13:33:34;11.80;99.90
6210;DHT22;3138;52.550;13.148;2023-03-31T13:36:19;11.70;99.90
6210;DHT22;3138;52.550;13.148;2023-03-31T13:39:00;11.50;99.90
6210;DHT22;3138;52.550;13.148;2023-03-31T13:41:36;11.70;99.90
6210;DHT22;3138;52.550;13.148;2023-03-31T13:44:20;11.80;99.90
6210;DHT22;3138;52.550;13.148;2023-03-31T13:47:14;11.90;99.90
6210;DHT22;3138;52.550;13.148;2023-03-31T13:49:54;11.90;99.90
6210;DHT22;3138;52.550;13.148;2023-03-31T13:52:36;11.70;99.90
6210;DHT22;3138;52.550;13.148;2023-03-31T13:55:27;11.40;99.90
6210;DHT22;3138;52.550;13.148;2023-03-31T13:58:23;11.20;99.90
6210;DHT22;3138;52.550;13.148;2023-03-31T14:01:08;11.10;99.90
6210;DHT22;3138;52.550;13.148;2023-03-31T14:03:50;11.10;99.90
6210;DHT22;3138;52.550;13.148;2023-03-31T14:06:24;10.90;99.90
6210;DHT22;3138;52.550;13.148;2023-03-31T14:08:56;11.00;99.90
6210;DHT22;3138;52.550;13.148;2023-03-31T14:11:26;11.00;99.90
6210;DHT22;3138;52.550;13.148;2023-03-31T14:14:02;11.10;99.90
6210;DHT22;3138;52.550;13.148;2023-03-31T14:16:32;11.10;99.90
6210;DHT22;3138;52.550;13.148;2023-03-31T14:19:19;11.10;99.90
6210;DHT22;3138;52.550;13.148;2023-03-31T14:21:54;11.20;99.90
6210;DHT22;3138;52.550;13.148;2023-03-31T14:24:31;11.40;99.90
6210;DHT22;3138;52.550;13.148;2023-03-31T14:27:03;11.30;99.90
6210;DHT22;3138;52.550;13.148;2023-03-31T14:29:37;11.20;99.90
6210;DHT22;3138;52.550;13.148;2023-03-31T14:32:14;11.20;99.90
6210;DHT22;3138;52.550;13.148;2023-03-31T14:34:52;11.10;99.90
6210;DHT22;3138;52.550;13.148;2023-03-31T14:37:22;11.10;99.90
6210;DHT22;3138;52.550;13.148;2023-03-31T14:39:52;11.10;99.90
6210;DHT22;3138;52.550;13.148;2023-03-31T14:42:23;11.10;99.90
6210;DHT22;3138;52.550;13.148;2023-03-31T14:44:55;11.10;99.90
6210;DHT22;3138;52.550;13.148;2023-03-31T14:47:24;11.10;99.90
6210;DHT22;3138;52.550;13.148;2023-03-31T14:49:59;11.00;99.90
6210;DHT22;3138;52.550;13.148;2023-03-31T14:52:29;11.10;99.90
6210;DHT22;3138;52.550;13.148;2023-03-31T14:54:59;11.00;99.90
6210;DHT22;3138;52.550;13.148;2023-03-31T14:57:30;11.00;99.90
6210;DHT22;3138;52.550;13.148;2023-03-31T14:59:58;10.90;99.90
6210;DHT22;3138;52.550;13.148;2023-03-31T15:02:31;10.80;99.90
6210;DHT22;3138;52.550;13.148;2023-03-31T15:05:02;10.90;99.90
6210;DHT22;3138;52.550;13.148;2023-03-31T15:07:30;11.00;1.00
6210;DHT22;3138;52.550;13.148;2023-03-31T15:09:58;11.00;1.00
6210;DHT22;3138;52.550;13.148;2023-03-31T15:12:27;10.90;1.00
6210;DHT22;3138;52.550;13.148;2023-03-31T15:14:57;10.80;1.00
6210;DHT22;3138;52.550;13.148;2023-03-31T15:17:28;10.80;1.00
6210;DHT22;3138;52.550;13.148;2023-03-31T15:19:58;10.90;1.00
6210;DHT22;3138;52.550;13.148;2023-03-31T15:22:27;10.90;1.00
6210;DHT22;3138;52.550;13.148;2023-03-31T15:24:58;10.90;1.00
6210;DHT22;3138;52.550;13.148;2023-03-31T15:27:31;10.80;1.00
6210;DHT22;3138;52.550;13.148;2023-03-31T15:30:02;10.90;1.00
6210;DHT22;3138;52.550;13.148;2023-03-31T15:32:31;10.80;1.00
6210;DHT22;3138;52.550;13.148;2023-03-31T15:35:00;10.90;1.00
6210;DHT22;3138;52.550;13.148;2023-03-31T15:37:32;10.70;1.00
6210;DHT22;3138;52.550;13.148;2023-03-31T15:42:37;10.70;1.00
6210;DHT22;3138;52.550;13.148;2023-03-31T15:45:44;10.60;1.00
6210;DHT22;3138;52.550;13.148;2023-03-31T15:48:17;10.70;1.00
6210;DHT22;3138;52.550;13.148;2023-03-31T15:50:44;10.70;1.00
6210;DHT22;3138;52.550;13.148;2023-03-31T15:53:25;10.80;1.00
6210;DHT22;3138;52.550;13.148;2023-03-31T15:55:55;10.80;1.00
6210;DHT22;3138;52.550;13.148;2023-03-31T15:58:45;10.90;1.00
6210;DHT22;3138;52.550;13.148;2023-03-31T16:01:14;10.80;1.00
6210;DHT22;3138;52.550;13.148;2023-03-31T16:03:44;10.80;1.00
6210;DHT22;3138;52.550;13.148;2023-03-31T16:06:17;10.90;1.00
6210;DHT22;3138;52.550;13.148;2023-03-31T16:08:47;10.90;1.00
6210;DHT22;3138;52.550;13.148;2023-03-31T16:11:20;10.90;1.00
6210;DHT22;3138;52.550;13.148;2023-03-31T16:13:51;10.80;1.00
6210;DHT22;3138;52.550;13.148;2023-03-31T16:16:22;10.90;1.00
6210;DHT22;3138;52.550;13.148;2023-03-31T16:18:51;10.80;1.00
6210;DHT22;3138;52.550;13.148;2023-03-31T16:21:22;10.70;1.00
6210;DHT22;3138;52.550;13.148;2023-03-31T16:23:51;10.70;1.00
6210;DHT22;3138;52.550;13.148;2023-03-31T16:26:24;10.80;1.00
6210;DHT22;3138;52.550;13.148;2023-03-31T16:28:54;10.70;1.00
6210;DHT22;3138;52.550;13.148;2023-03-31T16:31:33;10.70;1.00
6210;DHT22;3138;52.550;13.148;2023-03-31T16:34:01;10.80;1.00
6210;DHT22;3138;52.550;13.148;2023-03-31T16:36:28;10.80;1.00
6210;DHT22;3138;52.550;13.148;2023-03-31T16:38:55;10.80;1.00
6210;DHT22;3138;52.550;13.148;2023-03-31T16:41:27;10.70;1.00
6210;DHT22;3138;52.550;13.148;2023-03-31T16:43:54;10.70;1.00
6210;DHT22;3138;52.550;13.148;2023-03-31T16:46:21;10.60;1.00
6210;DHT22;3138;52.550;13.148;2023-03-31T16:48:49;10.70;1.00
6210;DHT22;3138;52.550;13.148;2023-03-31T16:51:16;10.60;1.00
6210;DHT22;3138;52.550;13.148;2023-03-31T16:53:44;10.60;1.00
6210;DHT22;3138;52.550;13.148;2023-03-31T16:56:12;10.50;1.00